Time;durP1;ratioP1;P1;durP2;ratioP2;P2;SDS_P1;SDS_P2;PMS_P1;PMS_P2;Temp;Humidity;BMP_temperature;BMP_pressure;BME280_temperature;BME280_humidity;BME280_pressure;Samples;Min_cycle;Max_cycle;Signal;HPM_P1;HPM_P2
2022/05/23 00:02:19;;;;;;;6.03;4.50;;;10.80;99.90;;;;;;5073545;28;20256;-74
2022/05/23 00:04:48;;;;;;;5.70;4.70;;;10.90;99.90;;;;;;5062918;28;20248;-74
2022/05/23 00:07:23;;;;;;;6.13;4.77;;;10.90;99.90;;;;;;5074097;28;20237;-74
2022/05/23 00:09:51;;;;;;;6.53;4.57;;;11.00;99.90;;;;;;5062259;28;20197;-74
2022/05/23 00:12:18;;;;;;;15.70;4.53;;;10.90;99.90;;;;;;5074246;28;20198;-74
2022/05/23 00:14:45;;;;;;;5.97;4.73;;;10.90;99.90;;;;;;5061955;28;20238;-74
2022/05/23 00:17:13;;;;;;;6.47;5.17;;;11.00;99.90;;;;;;5073448;28;20272;-74
2022/05/23 00:19:40;;;;;;;5.27;4.20;;;11.10;99.90;;;;;;5070625;28;20226;-74
2022/05/23 00:22:09;;;;;;;7.43;4.30;;;11.20;99.90;;;;;;5071554;28;20230;-74
2022/05/23 00:24:36;;;;;;;7.40;4.53;;;11.10;99.90;;;;;;5055189;28;20707;-74
2022/05/23 00:27:04;;;;;;;6.00;4.80;;;11.20;99.90;;;;;;5061783;28;20604;-73
2022/05/23 00:29:32;;;;;;;4.53;4.13;;;11.30;99.90;;;;;;5061333;28;20265;-74
2022/05/23 00:37:43;;;;;;;5.60;4.10;;;11.00;99.90;;;;;;4995569;28;20265;-74
2022/05/23 00:40:21;;;;;;;7.30;4.23;;;11.10;99.90;;;;;;4992159;28;20237;-74
2022/05/23 00:45:34;;;;;;;5.03;4.17;;;11.20;99.90;;;;;;5069584;28;20201;-74
2022/05/23 00:48:01;;;;;;;7.00;4.20;;;11.10;99.90;;;;;;5067045;28;20203;-74
2022/05/23 00:50:29;;;;;;;6.33;4.33;;;11.20;99.90;;;;;;5060038;28;20203;-74
2022/05/23 00:52:58;;;;;;;5.17;4.20;;;11.30;99.90;;;;;;5067765;28;20641;-74
2022/05/23 00:55:29;;;;;;;5.30;4.27;;;11.20;99.90;;;;;;5074491;28;20202;-74
2022/05/23 00:58:01;;;;;;;5.40;4.13;;;11.10;99.90;;;;;;5073064;28;20308;-74
2022/05/23 01:00:29;;;;;;;8.67;4.37;;;11.10;99.90;;;;;;5073892;28;20261;-74
2022/05/23 01:03:01;;;;;;;5.27;4.50;;;11.10;99.90;;;;;;5073515;28;20222;-74
2022/05/23 01:05:29;;;;;;;5.07;4.37;;;11.00;99.90;;;;;;5057858;28;20262;-74
2022/05/23 01:07:58;;;;;;;7.27;4.73;;;10.90;99.90;;;;;;5065260;28;20238;-74
2022/05/23 01:10:25;;;;;;;5.03;4.53;;;10.80;99.90;;;;;;5065489;28;20212;-74
2022/05/23 01:12:52;;;;;;;5.53;4.60;;;10.80;99.90;;;;;;5068797;28;20641;-69
2022/05/23 01:15:21;;;;;;;8.10;4.77;;;10.80;99.90;;;;;;5058778;28;20286;-69
2022/05/23 01:17:48;;;;;;;7.30;4.43;;;10.90;99.90;;;;;;5055533;28;20222;-69
2022/05/23 01:20:16;;;;;;;4.80;4.20;;;10.90;99.90;;;;;;5060747;28;20238;-69
2022/05/23 01:22:51;;;;;;;6.53;4.30;;;10.70;99.90;;;;;;5068312;28;20579;-69
2022/05/23 01:25:27;;;;;;;4.90;4.40;;;10.60;99.90;;;;;;5073178;28;20190;-69
2022/05/23 01:27:54;;;;;;;5.40;4.80;;;10.40;99.90;;;;;;5071305;28;20194;-69
2022/05/23 01:30:21;;;;;;;8.13;5.07;;;10.30;99.90;;;;;;5074259;28;20194;-68
2022/05/23 01:32:48;;;;;;;5.53;4.80;;;10.20;99.90;;;;;;5074686;28;20198;-69
2022/05/23 01:35:15;;;;;;;5.97;4.83;;;10.40;99.90;;;;;;5065988;28;20207;-69
2022/05/23 01:37:42;;;;;;;6.03;4.90;;;10.40;99.90;;;;;;5056414;28;20642;-69
2022/05/23 01:40:11;;;;;;;10.77;4.83;;;10.50;99.90;;;;;;5073792;28;20217;-69
2022/05/23 01:42:40;;;;;;;6.47;4.90;;;10.40;99.90;;;;;;5071314;28;20207;-69
2022/05/23 01:45:08;;;;;;;6.20;4.50;;;10.60;99.90;;;;;;5074682;28;20202;-69
2022/05/23 01:47:35;;;;;;;5.00;4.60;;;10.60;99.90;;;;;;5070346;28;20218;-68
2022/05/23 01:50:02;;;;;;;8.03;4.93;;;10.60;99.90;;;;;;5054404;28;20654;-69
2022/05/23 01:52:29;;;;;;;6.53;4.87;;;10.50;99.90;;;;;;5070303;28;20686;-69
2022/05/23 01:54:56;;;;;;;5.47;4.97;;;10.50;99.90;;;;;;5070193;28;20202;-69
2022/05/23 01:57:23;;;;;;;6.47;4.60;;;10.40;99.90;;;;;;5073693;28;20216;-69
2022/05/23 02:02:36;;;;;;;5.20;4.70;;;10.60;99.90;;;;;;5073794;28;20212;-68
2022/05/23 02:05:04;;;;;;;6.40;4.70;;;10.60;99.90;;;;;;5066401;28;20245;-69
2022/05/23 02:07:31;;;;;;;8.73;5.90;;;10.30;99.90;;;;;;5054243;28;20211;-69
2022/05/23 02:09:58;;;;;;;5.17;4.47;;;10.30;99.90;;;;;;5060551;28;20200;-69
2022/05/23 02:12:25;;;;;;;6.30;4.67;;;10.60;99.90;;;;;;5072851;28;20194;-68
2022/05/23 02:14:53;;;;;;;8.57;4.97;;;10.70;99.90;;;;;;5067265;28;20195;-69
2022/05/23 02:17:20;;;;;;;6.97;4.63;;;10.80;99.90;;;;;;5073449;28;20205;-69
2022/05/23 02:19:48;;;;;;;7.13;5.00;;;10.60;99.90;;;;;;5065558;28;20202;-68
2022/05/23 02:22:14;;;;;;;5.03;4.53;;;10.60;99.90;;;;;;5073189;28;20614;-69
2022/05/23 02:24:41;;;;;;;7.30;5.10;;;10.80;99.90;;;;;;5073553;28;20199;-69
2022/05/23 02:27:08;;;;;;;5.23;4.73;;;10.80;99.90;;;;;;5073208;28;20205;-69
2022/05/23 02:29:36;;;;;;;6.00;4.67;;;10.70;99.90;;;;;;5073029;28;20200;-68
2022/05/23 02:32:05;;;;;;;7.13;4.90;;;10.60;99.90;;;;;;5073288;28;20202;-68
2022/05/23 02:34:32;;;;;;;5.07;4.53;;;10.70;99.90;;;;;;5070650;28;20209;-69
2022/05/23 02:36:58;;;;;;;5.87;4.83;;;10.70;99.90;;;;;;5073367;28;20210;-68
2022/05/23 02:39:25;;;;;;;7.27;5.10;;;10.60;99.90;;;;;;5070375;28;20206;-69
2022/05/23 02:41:52;;;;;;;7.60;5.17;;;10.50;99.90;;;;;;5070185;28;20222;-68
2022/05/23 02:44:19;;;;;;;6.77;4.93;;;10.50;99.90;;;;;;5066979;28;20206;-69
2022/05/23 02:46:46;;;;;;;5.33;4.43;;;10.60;99.90;;;;;;5070359;28;20214;-69
2022/05/23 02:49:15;;;;;;;7.63;4.97;;;10.70;99.90;;;;;;5052999;28;20205;-69
2022/05/23 02:51:42;;;;;;;7.73;5.60;;;10.80;99.90;;;;;;5067508;28;20213;-68
2022/05/23 02:54:09;;;;;;;5.90;5.20;;;10.80;99.90;;;;;;5062826;28;20205;-68
2022/05/23 02:56:36;;;;;;;9.47;4.97;;;10.90;99.90;;;;;;5072812;28;20656;-68
2022/05/23 02:59:04;;;;;;;9.07;5.67;;;11.00;99.90;;;;;;5062079;28;20205;-68
2022/05/23 03:01:31;;;;;;;8.67;6.37;;;10.90;99.90;;;;;;5072600;28;20214;-68
2022/05/23 03:03:56;;;;;;;6.90;5.83;;;11.00;99.90;;;;;;5053134;28;20592;-68
2022/05/23 03:06:25;;;;;;;10.87;6.30;;;11.00;99.90;;;;;;5053257;28;20209;-68
2022/05/23 03:08:52;;;;;;;11.20;5.70;;;11.10;99.90;;;;;;5060751;28;20203;-69
2022/05/23 03:11:18;;;;;;;8.73;5.70;;;11.10;99.90;;;;;;5073009;28;20546;-69
2022/05/23 03:13:46;;;;;;;7.40;5.30;;;11.10;99.90;;;;;;5061125;28;20203;-68
2022/05/23 03:16:14;;;;;;;11.30;5.40;;;11.10;99.90;;;;;;5068267;28;20198;-69
2022/05/23 03:18:41;;;;;;;7.97;5.10;;;11.10;99.90;;;;;;5057375;28;20576;-69
2022/05/23 03:21:10;;;;;;;9.90;5.23;;;11.20;99.90;;;;;;5052774;28;20666;-68
2022/05/23 03:29:17;;;;;;;7.03;5.17;;;11.10;99.90;;;;;;5052503;28;20209;-69
2022/05/23 03:31:44;;;;;;;8.13;5.57;;;11.00;99.90;;;;;;5052703;28;20203;-69
2022/05/23 03:34:11;;;;;;;7.10;5.57;;;10.90;99.90;;;;;;5052242;28;20725;-69
2022/05/23 03:36:37;;;;;;;8.00;6.70;;;10.90;99.90;;;;;;5052714;28;20214;-69
2022/05/23 03:39:06;;;;;;;7.70;5.90;;;10.90;99.90;;;;;;5052386;28;20861;-68
2022/05/23 03:41:32;;;;;;;11.40;6.50;;;11.00;99.90;;;;;;5051960;28;20222;-69
2022/05/23 03:43:59;;;;;;;7.70;6.13;;;11.00;99.90;;;;;;5052392;28;20206;-68
2022/05/23 03:46:27;;;;;;;9.60;6.37;;;11.10;99.90;;;;;;5052728;28;20688;-68
2022/05/23 03:48:54;;;;;;;11.33;6.40;;;11.10;99.90;;;;;;5052039;28;20652;-68
2022/05/23 03:51:21;;;;;;;8.17;6.20;;;11.20;99.90;;;;;;5052771;28;20199;-69
2022/05/23 03:53:48;;;;;;;9.63;6.30;;;11.20;99.90;;;;;;5052661;28;20783;-68
2022/05/23 03:56:16;;;;;;;8.67;6.23;;;11.20;99.90;;;;;;5052642;28;20203;-68
2022/05/23 03:58:43;;;;;;;6.90;5.70;;;11.40;99.90;;;;;;5052293;28;20210;-68
2022/05/23 04:01:15;;;;;;;9.77;5.93;;;11.80;99.90;;;;;;5052382;28;20565;-69
2022/05/23 04:03:42;;;;;;;8.57;5.60;;;12.20;99.90;;;;;;5052163;28;20207;-69
2022/05/23 04:06:09;;;;;;;9.50;5.80;;;11.90;99.90;;;;;;5052320;28;20199;-69
2022/05/23 04:08:36;;;;;;;7.40;6.17;;;11.80;99.90;;;;;;5052310;28;20621;-69
2022/05/23 04:11:04;;;;;;;6.20;5.60;;;11.80;99.90;;;;;;5052128;28;20216;-68
2022/05/23 04:13:32;;;;;;;6.30;5.60;;;11.80;99.90;;;;;;5051803;28;20207;-69
2022/05/23 04:15:59;;;;;;;8.13;5.80;;;11.90;99.90;;;;;;5051904;28;20219;-69
2022/05/23 04:18:26;;;;;;;9.33;5.73;;;11.80;99.90;;;;;;5052301;28;20734;-69
2022/05/23 04:20:53;;;;;;;10.87;6.13;;;11.90;99.90;;;;;;5051904;28;20223;-69
2022/05/23 04:23:20;;;;;;;6.83;5.53;;;12.20;99.90;;;;;;5052628;28;20211;-69
2022/05/23 04:25:49;;;;;;;7.13;6.00;;;12.40;99.90;;;;;;5051885;28;20669;-69
2022/05/23 04:28:18;;;;;;;8.00;5.93;;;12.60;99.90;;;;;;5051878;28;20211;-69
2022/05/23 04:30:47;;;;;;;6.17;5.53;;;13.10;99.90;;;;;;5051484;28;20561;-69
2022/05/23 04:36:00;;;;;;;10.17;5.67;;;13.30;99.90;;;;;;5052181;28;20221;-78
2022/05/23 04:38:27;;;;;;;8.57;5.37;;;13.20;99.90;;;;;;5055352;28;20245;-78
2022/05/23 04:40:54;;;;;;;7.40;5.20;;;13.30;99.90;;;;;;5051270;28;20260;-78
2022/05/23 04:43:21;;;;;;;8.30;5.20;;;13.20;99.90;;;;;;5051100;28;20207;-78
2022/05/23 04:45:49;;;;;;;8.17;5.10;;;13.20;99.90;;;;;;5051468;28;20642;-78
2022/05/23 04:51:00;;;;;;;10.33;6.23;;;13.00;99.90;;;;;;5055565;28;20248;-78
2022/05/23 04:53:27;;;;;;;9.43;5.80;;;13.10;99.90;;;;;;5055333;28;20213;-78
2022/05/23 04:55:54;;;;;;;7.63;5.93;;;13.20;99.90;;;;;;5055335;28;20210;-78
2022/05/23 04:58:21;;;;;;;8.03;6.50;;;13.10;99.90;;;;;;5054906;28;20202;-78
2022/05/23 05:00:49;;;;;;;9.57;6.30;;;13.30;99.90;;;;;;5055189;28;20211;-78
2022/05/23 05:03:17;;;;;;;9.03;6.50;;;13.30;99.90;;;;;;5055284;28;20184;-78
2022/05/23 05:05:44;;;;;;;9.10;6.57;;;13.40;99.90;;;;;;5055235;28;20215;-78
2022/05/23 05:08:12;;;;;;;9.03;6.20;;;13.30;99.90;;;;;;5055360;28;20207;-78
2022/05/23 05:10:39;;;;;;;12.93;6.43;;;13.30;99.90;;;;;;5063916;28;20206;-78
2022/05/23 05:13:06;;;;;;;8.97;6.10;;;13.40;99.90;;;;;;5065351;28;20199;-78
2022/05/23 05:15:33;;;;;;;9.50;6.00;;;13.60;99.90;;;;;;5055645;28;20226;-78
2022/05/23 05:18:01;;;;;;;10.17;5.60;;;13.60;99.90;;;;;;5055382;28;20221;-78
2022/05/23 05:20:29;;;;;;;9.20;6.63;;;13.60;99.90;;;;;;5054992;28;20214;-78
2022/05/23 05:22:56;;;;;;;8.47;6.10;;;13.60;99.90;;;;;;5061701;28;20304;-78
2022/05/23 05:25:22;;;;;;;7.83;6.10;;;13.60;99.90;;;;;;5074603;28;20204;-78
2022/05/23 05:27:49;;;;;;;9.83;5.60;;;13.60;99.90;;;;;;5074690;28;20210;-78
2022/05/23 05:30:19;;;;;;;11.50;6.33;;;13.60;99.90;;;;;;5074914;28;20209;-78
2022/05/23 05:32:52;;;;;;;8.43;5.87;;;13.60;99.90;;;;;;5074979;28;20296;-78
2022/05/23 05:35:25;;;;;;;12.40;6.57;;;13.70;99.90;;;;;;5074699;28;20267;-78
2022/05/23 05:37:58;;;;;;;11.07;6.20;;;13.70;99.90;;;;;;5064538;28;20250;-78
2022/05/23 05:40:28;;;;;;;9.73;5.50;;;13.80;99.90;;;;;;5054738;28;20218;-78
2022/05/23 05:43:01;;;;;;;7.20;4.97;;;13.90;99.90;;;;;;5054549;28;20222;-78
2022/05/23 05:45:31;;;;;;;6.30;4.70;;;13.80;99.90;;;;;;5054906;28;20799;-79
2022/05/23 05:47:59;;;;;;;8.50;4.77;;;13.90;99.90;;;;;;5054662;28;20199;-78
2022/05/23 05:50:32;;;;;;;6.87;4.43;;;13.90;99.90;;;;;;5054350;28;20199;-78
2022/05/23 05:53:02;;;;;;;7.00;4.30;;;13.90;99.90;;;;;;5054809;28;20210;-77
2022/05/23 05:55:31;;;;;;;6.90;4.70;;;13.90;99.90;;;;;;5054637;28;20582;-77
2022/05/23 05:57:59;;;;;;;5.50;4.20;;;14.00;99.90;;;;;;5053881;28;20207;-77
2022/05/23 06:00:26;;;;;;;9.37;5.00;;;13.90;99.90;;;;;;5054225;28;20207;-78
2022/05/23 06:02:53;;;;;;;8.80;4.17;;;13.90;99.90;;;;;;5054185;28;20728;-78
2022/05/23 06:05:20;;;;;;;7.47;4.43;;;13.90;99.90;;;;;;5053807;28;20217;-78
2022/05/23 06:13:13;;;;;;;8.40;4.83;;;14.00;92.50;;;;;;5035637;28;20194;-78
2022/05/23 06:15:40;;;;;;;6.10;4.20;;;14.10;91.50;;;;;;5065028;28;20210;-78
2022/05/23 06:18:08;;;;;;;8.33;4.43;;;14.20;28.90;;;;;;5067330;28;20202;-77
2022/05/23 06:20:35;;;;;;;6.33;4.37;;;14.20;95.70;;;;;;5060635;28;20661;-77
2022/05/23 06:23:04;;;;;;;6.30;4.10;;;14.20;69.80;;;;;;5069256;28;20211;-77
2022/05/23 06:25:32;;;;;;;4.67;4.13;;;14.30;70.60;;;;;;5059009;28;20649;-77
2022/05/23 06:27:58;;;;;;;7.07;4.60;;;14.30;73.60;;;;;;5071389;28;20242;-77
2022/05/23 06:30:26;;;;;;;5.00;4.20;;;14.30;76.20;;;;;;5067425;28;20202;-77
2022/05/23 06:32:53;;;;;;;5.63;4.33;;;14.40;50.60;;;;;;5064897;28;20565;-77
2022/05/23 06:35:21;;;;;;;7.10;4.47;;;14.40;29.70;;;;;;5064174;28;20640;-77
2022/05/23 06:37:48;;;;;;;5.23;4.47;;;14.40;67.20;;;;;;5067155;28;20199;-77
2022/05/23 06:40:17;;;;;;;9.07;4.53;;;14.50;59.00;;;;;;5067653;28;20205;-78
2022/05/23 06:42:44;;;;;;;9.33;4.73;;;14.40;79.80;;;;;;5061696;28;20214;-77
2022/05/23 06:45:11;;;;;;;4.30;4.00;;;14.50;52.60;;;;;;5061706;28;20206;-77
2022/05/23 06:47:39;;;;;;;8.80;4.60;;;14.50;90.00;;;;;;5067362;28;20199;-77
2022/05/23 06:50:07;;;;;;;10.70;4.60;;;14.60;99.90;;;;;;5062947;28;20202;-77
2022/05/23 06:52:34;;;;;;;6.13;4.63;;;14.60;97.40;;;;;;5063576;28;20214;-77
2022/05/23 06:55:01;;;;;;;4.97;4.47;;;14.60;83.50;;;;;;5070459;28;20206;-77
2022/05/23 06:57:30;;;;;;;8.77;4.57;;;14.70;99.90;;;;;;5065615;28;20199;-77
2022/05/23 06:59:57;;;;;;;7.13;4.53;;;14.80;90.50;;;;;;5062769;28;20215;-78
2022/05/23 07:02:24;;;;;;;7.00;4.80;;;14.90;47.50;;;;;;5066634;28;20228;-77
2022/05/23 07:13:06;;;;;;;7.43;4.33;;;15.30;1.00;;;;;;5065829;28;20201;-77
2022/05/23 07:15:37;;;;;;;5.20;4.60;;;15.30;1.00;;;;;;5056831;28;20203;-77
2022/05/23 07:18:04;;;;;;;6.83;4.93;;;15.40;1.00;;;;;;5065646;28;20202;-77
2022/05/23 07:20:31;;;;;;;8.23;4.60;;;15.40;1.00;;;;;;5060248;28;20245;-77
2022/05/23 07:22:58;;;;;;;10.07;4.70;;;15.40;1.00;;;;;;5068205;28;20660;-77
2022/05/23 07:25:25;;;;;;;6.88;4.68;;;15.40;1.00;;;;;;5064666;28;20202;-77
2022/05/23 07:27:52;;;;;;;5.77;4.20;;;15.50;1.00;;;;;;5066877;28;20194;-77
2022/05/23 07:30:21;;;;;;;7.30;4.80;;;15.50;1.00;;;;;;5061758;28;20204;-77
2022/05/23 07:32:48;;;;;;;7.37;4.50;;;15.60;1.00;;;;;;5066455;28;20281;-77
2022/05/23 07:35:15;;;;;;;6.23;4.57;;;15.70;1.00;;;;;;5064205;28;20207;-77
2022/05/23 07:37:41;;;;;;;5.60;4.07;;;15.80;1.00;;;;;;5062536;28;20305;-77
2022/05/23 07:40:10;;;;;;;7.07;4.20;;;15.90;1.00;;;;;;5063049;28;20206;-77
2022/05/23 07:42:37;;;;;;;5.60;3.97;;;16.00;1.00;;;;;;5066956;28;20223;-77
2022/05/23 07:45:05;;;;;;;5.57;3.88;;;16.20;1.00;;;;;;5063525;28;20213;-77
2022/05/23 07:47:34;;;;;;;4.75;3.90;;;16.40;1.00;;;;;;5057633;28;20214;-77
2022/05/23 07:50:01;;;;;;;9.20;4.45;;;16.40;1.00;;;;;;5066205;28;20203;-77
2022/05/23 07:52:28;;;;;;;7.60;4.30;;;16.50;1.00;;;;;;5060041;28;20202;-77
2022/05/23 08:00:32;;;;;;;8.02;4.75;;;16.40;1.00;;;;;;5063021;28;20209;-72
2022/05/23 08:03:02;;;;;;;6.40;4.60;;;16.40;1.00;;;;;;5067309;28;20275;-72
2022/05/23 08:05:29;;;;;;;7.53;4.82;;;16.50;1.00;;;;;;5062797;28;20206;-72
2022/05/23 08:07:56;;;;;;;6.70;4.32;;;16.60;1.00;;;;;;5062710;28;20195;-72
2022/05/23 08:10:24;;;;;;;8.35;4.47;;;16.60;1.00;;;;;;5058370;28;20198;-72
2022/05/23 08:12:53;;;;;;;6.15;5.10;;;16.60;1.00;;;;;;5066010;28;20296;-72
2022/05/23 08:15:20;;;;;;;7.03;4.70;;;16.60;1.00;;;;;;5060291;28;20203;-71
2022/05/23 08:17:47;;;;;;;6.50;4.25;;;16.70;1.00;;;;;;5064932;28;20207;-72
2022/05/23 08:20:16;;;;;;;6.65;4.28;;;16.90;1.00;;;;;;5056748;28;20294;-72
2022/05/23 08:22:44;;;;;;;6.25;4.63;;;16.90;1.00;;;;;;5072780;28;20215;-72
2022/05/23 08:25:12;;;;;;;5.68;4.35;;;16.90;1.00;;;;;;5064557;28;20273;-71
2022/05/23 08:27:39;;;;;;;7.38;4.47;;;17.00;1.00;;;;;;5067813;28;20213;-72
2022/05/23 08:30:08;;;;;;;7.93;4.65;;;17.20;1.00;;;;;;5065405;28;20202;-72
2022/05/23 08:32:34;;;;;;;5.55;4.50;;;17.20;1.00;;;;;;5066185;28;20665;-72
2022/05/23 08:35:01;;;;;;;5.60;4.35;;;17.30;1.00;;;;;;5070956;28;20269;-72
2022/05/23 08:37:30;;;;;;;5.97;4.57;;;17.40;1.00;;;;;;5069580;28;20206;-72
2022/05/23 08:39:56;;;;;;;6.78;4.70;;;17.40;1.00;;;;;;5065696;28;20289;-72
2022/05/23 08:42:30;;;;;;;8.18;4.75;;;17.50;1.00;;;;;;5062544;28;20237;-72
2022/05/23 08:45:07;;;;;;;7.72;4.82;;;17.70;1.00;;;;;;5066337;28;20203;-72
2022/05/23 08:47:39;;;;;;;6.65;4.32;;;17.80;99.90;;;;;;5066849;28;20206;-72
2022/05/23 08:50:13;;;;;;;8.65;4.68;;;18.00;99.90;;;;;;5069271;28;20606;-72
2022/05/23 08:52:46;;;;;;;6.80;4.50;;;18.30;99.90;;;;;;5065268;28;20206;-72
2022/05/23 08:55:20;;;;;;;6.22;4.57;;;18.60;99.90;;;;;;5070039;28;20203;-72
2022/05/23 08:57:54;;;;;;;7.60;4.82;;;18.40;1.00;;;;;;5063976;28;20564;-72
2022/05/23 09:00:25;;;;;;;7.22;4.47;;;18.40;1.00;;;;;;5061558;28;20206;-72
2022/05/23 09:02:55;;;;;;;7.47;4.85;;;18.60;1.00;;;;;;5071913;28;20218;-72
2022/05/23 09:05:29;;;;;;;7.70;4.80;;;18.70;99.90;;;;;;5063813;28;20570;-72
2022/05/23 09:08:00;;;;;;;9.32;4.90;;;18.80;1.00;;;;;;5069931;28;20285;-72
2022/05/23 09:10:33;;;;;;;9.10;4.80;;;18.90;1.00;;;;;;5064389;28;20203;-72
2022/05/23 09:13:00;;;;;;;10.27;4.40;;;19.10;1.00;;;;;;5067222;28;20206;-72
2022/05/23 09:15:27;;;;;;;7.03;4.30;;;19.50;1.00;;;;;;5058395;28;20213;-72
2022/05/23 09:17:58;;;;;;;5.13;4.30;;;19.90;1.00;;;;;;5066256;28;20724;-72
2022/05/23 09:20:34;;;;;;;7.30;4.57;;;20.10;99.90;;;;;;5066234;28;20203;-72
2022/05/23 09:23:07;;;;;;;9.48;5.65;;;20.20;1.00;;;;;;5066062;28;20279;-72
2022/05/23 09:25:34;;;;;;;5.68;4.43;;;20.30;1.00;;;;;;5067696;28;20214;-72
2022/05/23 09:28:12;;;;;;;9.25;5.40;;;20.30;1.00;;;;;;5067316;28;20202;-72
2022/05/23 09:30:41;;;;;;;8.25;5.00;;;20.40;65.20;;;;;;5069038;28;20205;-72
2022/05/23 09:33:11;;;;;;;6.25;5.05;;;21.10;99.90;;;;;;5067915;28;20198;-72
2022/05/23 09:35:51;;;;;;;9.20;5.32;;;21.00;1.00;;;;;;5068865;28;20211;-72
2022/05/23 09:38:21;;;;;;;6.55;5.53;;;20.80;1.00;;;;;;5060763;28;20218;-72
2022/05/23 09:40:49;;;;;;;6.97;5.60;;;20.50;1.00;;;;;;5067033;28;20207;-72
2022/05/23 09:49:06;;;;;;;6.10;5.10;;;21.00;99.90;;;;;;5065530;28;20222;-72
2022/05/23 09:51:33;;;;;;;9.73;5.47;;;20.90;99.90;;;;;;5067032;28;20203;-72
2022/05/23 09:54:04;;;;;;;11.15;6.40;;;21.00;99.90;;;;;;5070543;28;20195;-72
2022/05/23 09:56:38;;;;;;;5.07;4.38;;;21.10;1.00;;;;;;5063821;28;20198;-72
2022/05/23 09:59:10;;;;;;;5.97;4.93;;;21.40;1.00;;;;;;5064372;28;20205;-72
2022/05/23 10:01:38;;;;;;;5.35;4.57;;;21.30;1.00;;;;;;5059275;28;20205;-72
2022/05/23 10:04:15;;;;;;;7.57;5.10;;;21.40;1.00;;;;;;5070924;28;20230;-72
2022/05/23 10:06:48;;;;;;;6.60;5.18;;;21.00;1.00;;;;;;5070006;28;20206;-72
2022/05/23 10:09:27;;;;;;;6.13;4.50;;;21.00;99.90;;;;;;5062113;28;20760;-72
2022/05/23 10:11:57;;;;;;;8.15;4.70;;;21.30;99.90;;;;;;5062658;28;20194;-72
2022/05/23 10:14:25;;;;;;;5.53;4.40;;;21.40;1.00;;;;;;5067496;28;20202;-72
2022/05/23 10:16:56;;;;;;;7.60;4.30;;;21.70;99.90;;;;;;5067461;28;20215;-72
2022/05/23 10:19:31;;;;;;;7.75;4.85;;;21.30;99.90;;;;;;5058969;28;20206;-72
2022/05/23 10:22:23;;;;;;;10.32;4.75;;;21.40;1.00;;;;;;5061490;28;20679;-71
2022/05/23 10:24:57;;;;;;;7.55;4.70;;;21.20;1.00;;;;;;5043232;28;20218;-72
2022/05/23 10:27:36;;;;;;;9.65;5.50;;;21.30;1.90;;;;;;5053179;28;20221;-72
2022/05/23 10:30:06;;;;;;;8.57;5.20;;;21.20;1.00;;;;;;5053215;28;20221;-72
2022/05/23 10:32:38;;;;;;;6.93;5.15;;;21.10;1.00;;;;;;5053754;28;20206;-72
2022/05/23 10:35:10;;;;;;;7.57;4.72;;;21.10;1.00;;;;;;5053201;28;20218;-72
2022/05/23 10:37:39;;;;;;;5.85;5.10;;;21.20;1.00;;;;;;5053680;28;20202;-72
2022/05/23 10:43:03;;;;;;;10.02;5.85;;;21.50;99.90;;;;;;5053199;28;20226;-72
2022/05/23 10:45:36;;;;;;;6.60;4.82;;;21.50;1.00;;;;;;5052595;28;20623;-72
2022/05/23 10:48:30;;;;;;;6.45;5.60;;;21.80;1.00;;;;;;5053408;28;20730;-72
2022/05/23 10:51:07;;;;;;;8.80;4.90;;;21.50;1.00;;;;;;5053230;28;20211;-72
2022/05/23 10:53:42;;;;;;;5.18;4.38;;;22.00;1.00;;;;;;5053557;28;20640;-72
2022/05/23 10:56:21;;;;;;;5.18;4.60;;;22.20;99.90;;;;;;5051623;28;20209;-72
2022/05/23 10:58:53;;;;;;;6.60;4.57;;;22.40;99.90;;;;;;5052555;28;20680;-72
2022/05/23 11:01:35;;;;;;;6.85;4.53;;;22.30;99.90;;;;;;5053314;28;20202;-72
2022/05/23 11:04:12;;;;;;;6.28;4.15;;;21.80;1.00;;;;;;5052231;28;20917;-72
2022/05/23 11:06:52;;;;;;;4.80;4.28;;;21.60;1.00;;;;;;5051528;28;20206;-72
2022/05/23 11:09:31;;;;;;;6.78;4.32;;;21.70;1.00;;;;;;5051450;28;20210;-72
2022/05/23 11:12:13;;;;;;;6.05;4.35;;;21.70;33.10;;;;;;5052954;28;20548;-72
2022/05/23 11:14:52;;;;;;;5.85;4.78;;;21.80;99.90;;;;;;5068659;28;20209;-73
2022/05/23 11:17:32;;;;;;;6.93;4.72;;;21.90;1.00;;;;;;5069383;28;20205;-73
2022/05/23 11:20:10;;;;;;;4.75;3.88;;;21.90;1.00;;;;;;5069032;28;20234;-77
2022/05/23 11:22:42;;;;;;;8.75;4.90;;;22.30;23.00;;;;;;5071717;28;20210;-77
2022/05/23 11:25:21;;;;;;;6.20;4.43;;;22.20;29.90;;;;;;5071996;28;20194;-77
2022/05/23 11:33:46;;;;;;;7.53;4.25;;;22.50;1.00;;;;;;5056042;28;20214;-77
2022/05/23 11:36:33;;;;;;;6.40;3.70;;;22.20;1.00;;;;;;5056648;28;20218;-77
2022/05/23 11:39:01;;;;;;;6.70;4.22;;;22.60;1.00;;;;;;5054738;28;20194;-77
2022/05/23 11:41:31;;;;;;;5.40;3.83;;;22.80;5.80;;;;;;5071376;28;20209;-76
2022/05/23 11:43:59;;;;;;;6.43;3.92;;;23.00;1.00;;;;;;5064418;28;20653;-77
2022/05/23 11:46:28;;;;;;;6.40;4.38;;;22.50;1.00;;;;;;5069867;28;20652;-77
2022/05/23 11:48:58;;;;;;;7.07;4.40;;;22.50;1.00;;;;;;5053186;28;20215;-76
2022/05/23 11:51:36;;;;;;;6.53;4.05;;;22.80;1.00;;;;;;5072787;28;20206;-77
2022/05/23 11:54:08;;;;;;;5.32;4.30;;;22.70;99.90;;;;;;5056973;28;20645;-77
2022/05/23 11:56:39;;;;;;;4.28;3.85;;;22.90;1.00;;;;;;5066532;28;20544;-76
2022/05/23 11:59:10;;;;;;;5.15;4.10;;;23.10;1.00;;;;;;5072642;28;20233;-77
2022/05/23 12:01:38;;;;;;;5.40;4.70;;;22.80;1.00;;;;;;5076279;28;20540;-77
2022/05/23 12:04:18;;;;;;;9.98;5.03;;;23.20;1.00;;;;;;5072659;28;20626;-77
2022/05/23 12:06:46;;;;;;;5.03;3.92;;;23.00;1.00;;;;;;5075348;28;20198;-77
2022/05/23 12:09:33;;;;;;;8.40;4.32;;;22.70;1.00;;;;;;5072997;28;20210;-76
2022/05/23 12:12:44;;;;;;;4.85;4.25;;;23.00;1.00;;;;;;5068521;28;20544;-77
2022/05/23 12:15:48;;;;;;;7.40;4.53;;;23.10;1.00;;;;;;5067923;28;20222;-77
2022/05/23 12:18:35;;;;;;;4.85;4.35;;;23.30;1.00;;;;;;5056340;28;20202;-77
2022/05/23 12:21:06;;;;;;;5.45;4.13;;;23.40;99.90;;;;;;5056078;28;20210;-77
2022/05/23 12:23:37;;;;;;;5.20;4.18;;;23.60;99.90;;;;;;5056259;28;20227;-77
2022/05/23 12:26:20;;;;;;;6.00;4.20;;;23.70;99.90;;;;;;5056132;28;20207;-77
2022/05/23 12:28:51;;;;;;;10.43;4.32;;;23.90;99.90;;;;;;5056248;28;20207;-77
2022/05/23 12:31:20;;;;;;;6.40;4.53;;;24.00;99.90;;;;;;5056350;28;20210;-77
2022/05/23 12:34:05;;;;;;;7.57;4.15;;;24.20;99.90;;;;;;5058471;28;20221;-77
2022/05/23 12:36:35;;;;;;;4.50;3.85;;;24.20;99.90;;;;;;5066293;28;20577;-77
2022/05/23 12:39:29;;;;;;;4.55;3.83;;;23.70;99.90;;;;;;5056087;28;20214;-77
2022/05/23 12:42:06;;;;;;;6.15;4.18;;;24.00;99.90;;;;;;5054640;28;20321;-77
2022/05/23 12:45:01;;;;;;;5.75;4.10;;;24.30;99.90;;;;;;5071592;28;20221;-77
2022/05/23 12:47:56;;;;;;;6.03;3.75;;;24.40;1.00;;;;;;5073628;28;20660;-77
2022/05/23 12:50:31;;;;;;;3.25;2.95;;;24.40;93.60;;;;;;5044275;28;20198;-77
2022/05/23 12:53:24;;;;;;;3.90;3.47;;;24.50;90.70;;;;;;5058993;28;20202;-77
2022/05/23 12:56:09;;;;;;;5.35;3.38;;;24.30;69.10;;;;;;5069227;28;20194;-77
2022/05/23 12:59:05;;;;;;;4.85;3.03;;;24.90;93.80;;;;;;5063569;28;20198;-77
2022/05/23 13:01:36;;;;;;;6.95;3.63;;;25.00;1.00;;;;;;5067256;28;20194;-77
2022/05/23 13:04:10;;;;;;;6.13;3.10;;;25.30;1.00;;;;;;5055037;28;20633;-77
2022/05/23 13:06:46;;;;;;;4.93;2.97;;;25.50;1.00;;;;;;5067718;28;20199;-77
2022/05/23 13:09:18;;;;;;;5.30;2.72;;;25.80;1.00;;;;;;5072845;28;20287;-77
2022/05/23 13:11:49;;;;;;;3.00;2.75;;;26.20;1.00;;;;;;5065713;28;20246;-77
2022/05/23 13:14:16;;;;;;;3.17;2.33;;;25.90;1.00;;;;;;5055796;28;20562;-77
2022/05/23 13:16:52;;;;;;;2.88;2.67;;;25.70;1.00;;;;;;5063092;28;20717;-77
2022/05/23 13:22:22;;;;;;;4.05;2.72;;;25.40;1.00;;;;;;5041828;28;20241;-77
2022/05/23 13:24:53;;;;;;;5.03;2.63;;;25.50;1.00;;;;;;5064469;28;20312;-77
2022/05/23 13:27:26;;;;;;;5.00;2.47;;;25.50;1.00;;;;;;5074534;28;20621;-77
2022/05/23 13:29:55;;;;;;;3.30;2.55;;;25.70;1.00;;;;;;5068968;28;20207;-77
2022/05/23 13:32:22;;;;;;;5.57;2.88;;;25.90;1.00;;;;;;5063874;28;20206;-77
2022/05/23 13:34:51;;;;;;;4.70;2.97;;;26.00;1.00;;;;;;5069605;28;20207;-77
2022/05/23 13:37:26;;;;;;;7.35;3.00;;;26.30;1.00;;;;;;5063728;28;20216;-77
2022/05/23 13:39:54;;;;;;;8.40;3.47;;;25.80;1.00;;;;;;5055112;28;20252;-77
2022/05/23 13:42:23;;;;;;;2.60;2.40;;;26.50;1.00;;;;;;5054496;28;20203;-77
2022/05/23 13:44:50;;;;;;;5.72;2.47;;;26.20;1.00;;;;;;5059341;28;20220;-77
2022/05/23 13:47:22;;;;;;;5.45;3.05;;;26.30;1.00;;;;;;5068818;28;20213;-77
2022/05/23 13:49:56;;;;;;;3.72;2.72;;;26.10;1.00;;;;;;5062315;28;20199;-77
2022/05/23 13:52:27;;;;;;;6.07;2.92;;;25.70;1.00;;;;;;5066192;28;20215;-77
2022/05/23 13:55:00;;;;;;;3.33;3.00;;;26.30;1.00;;;;;;5059960;28;20198;-77
2022/05/23 13:57:30;;;;;;;6.60;3.00;;;26.30;1.00;;;;;;5063022;28;20282;-77
2022/05/23 14:00:00;;;;;;;3.60;3.10;;;26.00;1.00;;;;;;5062990;28;20202;-77
2022/05/23 14:02:32;;;;;;;4.45;2.50;;;26.10;1.00;;;;;;5063388;28;20206;-77
2022/05/23 14:05:04;;;;;;;4.43;2.67;;;26.20;1.00;;;;;;5066711;28;20699;-77
2022/05/23 14:07:33;;;;;;;4.70;2.97;;;25.90;1.00;;;;;;5057381;28;20209;-77